createdAt,value
2022-08-05T00:01:36.454Z,1.30
2022-08-05T00:04:18.857Z,1.50
2022-08-05T00:06:47.051Z,1.70
2022-08-05T00:09:15.825Z,1.50
2022-08-05T00:11:49.362Z,1.55
2022-08-05T00:14:22.794Z,1.70
2022-08-05T00:16:55.437Z,1.50
2022-08-05T00:19:23.479Z,1.27
2022-08-05T00:21:54.053Z,1.50
2022-08-05T00:24:24.875Z,1.65
2022-08-05T00:26:57.430Z,1.50
2022-08-05T00:29:25.564Z,1.50
2022-08-05T00:32:13.245Z,1.60
2022-08-05T00:34:57.051Z,1.80
2022-08-05T00:37:35.284Z,1.50
2022-08-05T00:40:02.791Z,1.55
2022-08-05T00:42:32.217Z,1.50
2022-08-05T00:44:59.458Z,1.63
2022-08-05T00:47:26.165Z,1.70
2022-08-05T00:49:58.262Z,1.52
2022-08-05T00:52:28.239Z,1.80
2022-08-05T00:54:56.146Z,1.52
2022-08-05T00:57:23.440Z,1.42
2022-08-05T00:59:52.270Z,1.48
2022-08-05T01:02:18.974Z,1.60
2022-08-05T01:04:45.477Z,1.60
2022-08-05T01:07:18.003Z,1.48
2022-08-05T01:09:44.782Z,1.40
2022-08-05T01:12:18.768Z,1.30
2022-08-05T01:15:06.459Z,1.60
2022-08-05T01:18:00.997Z,1.75
2022-08-05T01:20:41.353Z,1.50
2022-08-05T01:23:23.387Z,1.60
2022-08-05T01:26:26.194Z,1.40
2022-08-05T01:28:55.614Z,1.40
2022-08-05T01:31:33.126Z,1.60
2022-08-05T01:34:35.910Z,1.60
2022-08-05T01:37:07.828Z,1.20
2022-08-05T01:39:47.582Z,1.35
2022-08-05T01:42:17.252Z,1.40
2022-08-05T01:44:54.184Z,1.48
2022-08-05T01:47:22.214Z,1.50
2022-08-05T01:50:01.781Z,1.52
2022-08-05T01:52:31.263Z,1.60
2022-08-05T01:55:05.533Z,1.70
2022-08-05T01:58:13.077Z,1.73
2022-08-05T02:00:30.033Z,1.30
2022-08-05T02:03:33.933Z,1.42
2022-08-05T02:06:03.554Z,1.33
2022-08-05T02:08:58.457Z,1.50
2022-08-05T02:11:33.219Z,1.67
2022-08-05T02:14:06.237Z,1.30
2022-08-05T02:16:39.763Z,1.67
2022-08-05T02:19:16.227Z,1.50
2022-08-05T02:21:52.785Z,1.67
2022-08-05T02:24:23.513Z,1.35
2022-08-05T02:26:54.786Z,1.42
2022-08-05T02:29:58.093Z,1.45
2022-08-05T02:32:11.736Z,1.58
2022-08-05T02:34:54.851Z,1.17
2022-08-05T02:37:23.251Z,1.48
2022-08-05T02:39:51.522Z,1.45
2022-08-05T02:42:25.996Z,1.88
2022-08-05T02:44:55.930Z,1.50
2022-08-05T02:47:23.671Z,1.70
2022-08-05T02:49:51.449Z,1.42
2022-08-05T02:52:29.609Z,1.70
2022-08-05T02:54:58.615Z,1.50
2022-08-05T02:58:09.832Z,1.60
2022-08-05T03:00:17.038Z,1.33
2022-08-05T03:02:45.500Z,1.50
2022-08-05T03:05:13.825Z,1.50
2022-08-05T03:08:01.307Z,1.40
2022-08-05T03:10:29.086Z,1.38
2022-08-05T03:15:23.435Z,1.35
2022-08-05T03:17:53.861Z,1.20
2022-08-05T03:20:22.180Z,1.67
2022-08-05T03:22:50.584Z,1.50
2022-08-05T03:25:32.860Z,1.27
2022-08-05T03:28:08.690Z,1.55
2022-08-05T03:30:36.364Z,1.30
2022-08-05T03:33:05.604Z,1.50
2022-08-05T03:35:41.189Z,1.27
2022-08-05T03:38:10.531Z,1.30
2022-08-05T03:40:41.089Z,1.80
2022-08-05T03:43:58.290Z,1.30
2022-08-05T03:45:59.133Z,1.35
2022-08-05T03:48:29.036Z,1.38
2022-08-05T03:52:34.984Z,1.38
2022-08-05T03:55:49.977Z,1.55
2022-08-05T03:57:16.719Z,1.20
2022-08-05T03:59:54.995Z,1.75
2022-08-05T04:02:38.711Z,1.50
2022-08-05T04:05:13.015Z,1.42
2022-08-05T04:07:53.025Z,1.25
2022-08-05T04:10:32.110Z,1.25
2022-08-05T04:13:03.382Z,1.50
2022-08-05T04:15:32.813Z,1.40
2022-08-05T04:18:03.508Z,1.30
2022-08-05T04:20:33.612Z,1.50
2022-08-05T04:23:00.120Z,1.23
2022-08-05T04:25:56.737Z,1.35
2022-08-05T04:28:14.932Z,1.20
2022-08-05T04:30:41.661Z,1.33
2022-08-05T04:33:09.627Z,1.33
2022-08-05T04:36:11.347Z,1.05
2022-08-05T04:38:23.479Z,1.50
2022-08-05T04:41:07.316Z,1.40
2022-08-05T04:43:34.072Z,1.30
2022-08-05T04:46:00.705Z,1.20
2022-08-05T04:48:28.388Z,1.08
2022-08-05T04:51:03.138Z,1.35
2022-08-05T04:53:36.487Z,1.17
2022-08-05T04:56:33.654Z,1.38
2022-08-05T04:58:52.977Z,1.52
2022-08-05T05:01:33.581Z,1.40
2022-08-05T05:04:06.005Z,1.50
2022-08-05T05:06:40.557Z,1.40
2022-08-05T05:09:17.458Z,1.58
2022-08-05T05:11:54.614Z,1.40
2022-08-05T05:14:28.127Z,1.25
2022-08-05T05:16:58.665Z,1.13
2022-08-05T05:19:27.409Z,1.40
2022-08-05T05:22:03.595Z,1.42
2022-08-05T05:24:58.667Z,1.40
2022-08-05T05:27:44.614Z,1.25
2022-08-05T05:30:29.371Z,1.50
2022-08-05T05:33:03.786Z,1.50
2022-08-05T05:35:43.384Z,1.40
2022-08-05T05:38:13.250Z,1.60
2022-08-05T05:40:48.322Z,1.42
2022-08-05T05:43:22.255Z,1.50
2022-08-05T05:46:06.877Z,1.63
2022-08-05T05:48:41.858Z,1.60
2022-08-05T05:51:14.780Z,1.50
2022-08-05T05:53:45.969Z,1.58
2022-08-05T05:56:26.026Z,1.60
2022-08-05T05:59:02.956Z,1.60
2022-08-05T06:01:38.107Z,1.50
2022-08-05T06:04:12.062Z,1.52
2022-08-05T06:06:47.536Z,1.73
2022-08-05T06:09:25.813Z,1.63
2022-08-05T06:12:04.967Z,1.67
2022-08-05T06:14:31.845Z,1.90
2022-08-05T06:17:02.125Z,1.60
2022-08-05T06:19:56.523Z,1.45
2022-08-05T06:22:29.107Z,1.50
2022-08-05T06:24:55.823Z,1.55
2022-08-05T06:28:12.441Z,1.70
2022-08-05T06:30:17.707Z,1.40
2022-08-05T06:32:46.884Z,1.40
2022-08-05T06:35:21.827Z,1.23
2022-08-05T06:38:03.061Z,1.50
2022-08-05T06:40:34.769Z,1.20
2022-08-05T06:43:51.519Z,1.15
2022-08-05T06:46:04.007Z,1.27
2022-08-05T06:48:55.389Z,1.20
2022-08-05T06:51:29.386Z,1.02
2022-08-05T06:53:58.919Z,1.17
2022-08-05T06:56:26.384Z,1.30
2022-08-05T06:58:53.593Z,1.65
2022-08-05T07:01:20.917Z,1.13
2022-08-05T07:03:47.694Z,1.00
2022-08-05T07:06:15.278Z,1.30
2022-08-05T07:08:47.534Z,1.35
2022-08-05T07:11:22.643Z,0.90
2022-08-05T07:14:15.385Z,1.00
2022-08-05T07:17:59.331Z,0.90
2022-08-05T07:22:28.540Z,1.10
2022-08-05T07:25:21.850Z,1.10
2022-08-05T07:27:58.557Z,0.95
2022-08-05T07:30:32.447Z,1.00
2022-08-05T07:33:00.921Z,1.00
2022-08-05T07:36:04.263Z,1.00
2022-08-05T07:38:26.422Z,0.90
2022-08-05T07:41:04.436Z,1.00
2022-08-05T07:43:43.803Z,0.82
2022-08-05T07:46:24.315Z,1.15
2022-08-05T07:49:02.984Z,0.80
2022-08-05T07:51:37.281Z,0.70
2022-08-05T07:54:05.384Z,0.88
2022-08-05T07:56:39.139Z,1.10
2022-08-05T07:59:23.168Z,1.20
2022-08-05T08:01:58.044Z,0.90
2022-08-05T08:04:37.537Z,0.80
2022-08-05T08:07:07.389Z,1.10
2022-08-05T08:09:34.917Z,1.17
2022-08-05T08:12:09.030Z,1.00
2022-08-05T08:14:37.925Z,0.88
2022-08-05T08:17:10.868Z,0.80
2022-08-05T08:20:42.926Z,0.70
2022-08-05T08:22:32.314Z,0.70
2022-08-05T08:25:03.356Z,0.70
2022-08-05T08:27:44.932Z,0.80
2022-08-05T08:30:29.523Z,0.70
2022-08-05T08:33:08.559Z,0.70
2022-08-05T08:35:41.521Z,0.57
2022-08-05T08:38:36.004Z,1.00
2022-08-05T08:41:10.059Z,0.77
2022-08-05T08:45:16.388Z,0.60
2022-08-05T08:46:31.630Z,0.70
2022-08-05T08:49:17.372Z,0.70
2022-08-05T08:52:03.694Z,0.70
2022-08-05T08:54:32.537Z,0.85
2022-08-05T08:56:59.707Z,0.68
2022-08-05T08:59:27.772Z,0.85
2022-08-05T09:02:04.410Z,0.80
2022-08-05T09:04:58.597Z,0.90
2022-08-05T09:07:28.366Z,0.68
2022-08-05T09:09:56.300Z,0.77
2022-08-05T09:12:30.231Z,0.60
2022-08-05T09:15:04.849Z,0.80
2022-08-05T09:17:42.247Z,0.70
2022-08-05T09:20:10.753Z,0.65
2022-08-05T09:23:07.938Z,0.80
2022-08-05T09:26:03.274Z,0.90
2022-08-05T09:28:24.425Z,1.10
2022-08-05T09:32:38.569Z,0.63
2022-08-05T09:34:01.787Z,0.60
2022-08-05T09:36:54.223Z,0.77
2022-08-05T09:39:27.769Z,0.70
2022-08-05T09:42:13.629Z,0.70
2022-08-05T09:44:50.591Z,0.50
2022-08-05T09:47:20.723Z,0.60
2022-08-05T09:50:00.412Z,0.50
2022-08-05T09:52:34.218Z,0.80
2022-08-05T09:55:58.524Z,0.75
2022-08-05T09:57:58.640Z,0.52
2022-08-05T10:00:26.734Z,0.60
2022-08-05T10:02:58.641Z,0.50
2022-08-05T10:05:32.690Z,0.70
2022-08-05T10:07:59.447Z,0.70
2022-08-05T10:10:50.380Z,0.50
2022-08-05T10:13:47.728Z,0.50
2022-08-05T10:16:41.608Z,0.60
2022-08-05T10:19:23.521Z,0.50
2022-08-05T10:21:58.647Z,0.50
2022-08-05T10:24:27.118Z,0.50
2022-08-05T10:26:56.297Z,0.43
2022-08-05T10:30:07.180Z,0.50
2022-08-05T10:33:01.988Z,0.60
2022-08-05T10:35:03.271Z,0.70
2022-08-05T10:37:40.184Z,0.50
2022-08-05T10:40:22.356Z,0.50
2022-08-05T10:42:59.255Z,0.88
2022-08-05T10:45:40.431Z,0.65
2022-08-05T10:48:57.371Z,0.40
2022-08-05T10:51:29.209Z,0.77
2022-08-05T10:54:01.800Z,0.60
2022-08-05T10:56:45.788Z,0.52
2022-08-05T11:00:03.612Z,0.55
2022-08-05T11:02:13.999Z,0.75
2022-08-05T11:04:46.336Z,0.43
2022-08-05T11:07:16.426Z,0.60
2022-08-05T11:10:03.648Z,0.70
2022-08-05T11:12:54.467Z,0.70
2022-08-05T11:16:01.392Z,0.60
2022-08-05T11:18:34.312Z,0.50
2022-08-05T11:21:06.352Z,0.50
2022-08-05T11:24:03.782Z,0.68
2022-08-05T11:26:43.414Z,0.40
2022-08-05T11:29:37.269Z,0.60
2022-08-05T11:32:27.433Z,0.40
2022-08-05T11:34:55.265Z,0.40
2022-08-05T11:38:29.636Z,0.30
2022-08-05T11:41:58.231Z,0.50
2022-08-05T11:44:40.712Z,0.40
2022-08-05T11:47:14.068Z,0.73
2022-08-05T11:49:50.907Z,0.60
2022-08-05T11:52:28.991Z,0.30
2022-08-05T11:54:58.014Z,0.40
2022-08-05T11:58:07.861Z,0.47
2022-08-05T12:00:31.108Z,0.45
2022-08-05T12:02:57.790Z,0.52
2022-08-05T12:05:36.080Z,0.60
2022-08-05T12:08:10.099Z,0.40
2022-08-05T12:10:45.459Z,0.40
2022-08-05T12:13:47.259Z,0.50
2022-08-05T12:16:14.959Z,0.50
2022-08-05T12:18:49.033Z,0.40
2022-08-05T12:21:23.870Z,0.40
2022-08-05T12:24:08.344Z,0.70
2022-08-05T12:26:36.110Z,0.50
2022-08-05T12:29:09.356Z,0.68
2022-08-05T12:31:43.498Z,0.70
2022-08-05T12:34:21.585Z,0.50
2022-08-05T12:36:53.231Z,0.40
2022-08-05T12:39:19.887Z,0.40
2022-08-05T12:41:46.569Z,0.50
2022-08-05T12:44:33.012Z,0.60
2022-08-05T12:47:01.791Z,0.60
2022-08-05T12:50:04.782Z,0.50
2022-08-05T12:52:38.508Z,0.43
2022-08-05T12:55:33.039Z,0.47
2022-08-05T12:58:49.098Z,0.57
2022-08-05T13:02:00.180Z,0.47
2022-08-05T13:03:42.311Z,0.70
2022-08-05T13:06:17.715Z,0.40
2022-08-05T13:08:51.805Z,0.70
2022-08-05T13:11:57.945Z,0.50
2022-08-05T13:14:19.329Z,0.50
2022-08-05T13:16:51.540Z,0.50
2022-08-05T13:19:21.077Z,0.60
2022-08-05T13:21:52.387Z,0.50
2022-08-05T13:24:36.282Z,0.70
2022-08-05T13:27:11.275Z,0.60
2022-08-05T13:29:59.373Z,0.60
2022-08-05T13:32:35.164Z,0.45
2022-08-05T13:35:07.210Z,0.60
2022-08-05T13:37:34.453Z,0.50
2022-08-05T13:40:14.139Z,0.52
2022-08-05T13:42:43.982Z,0.63
2022-08-05T13:45:12.082Z,0.93
2022-08-05T13:48:09.504Z,0.50
2022-08-05T13:50:25.937Z,0.50
2022-08-05T13:52:52.392Z,0.40
2022-08-05T13:55:41.666Z,0.57
2022-08-05T13:58:05.416Z,0.60
2022-08-05T14:00:31.966Z,0.50
2022-08-05T14:03:01.029Z,0.40
2022-08-05T14:05:48.118Z,0.60
2022-08-05T14:08:20.980Z,0.50
2022-08-05T14:10:54.131Z,0.60
2022-08-05T14:13:30.089Z,0.55
2022-08-05T14:16:08.684Z,0.50
2022-08-05T14:18:37.946Z,0.52
2022-08-05T14:21:23.840Z,0.60
2022-08-05T14:23:51.108Z,0.52
2022-08-05T14:26:36.843Z,0.47
2022-08-05T14:29:04.512Z,0.50
2022-08-05T14:31:54.394Z,0.40
2022-08-05T14:34:18.151Z,0.55
2022-08-05T14:36:50.243Z,0.70
2022-08-05T14:39:23.305Z,0.55
2022-08-05T14:42:16.708Z,0.63
2022-08-05T14:44:36.719Z,0.60
2022-08-05T14:47:03.672Z,1.08
2022-08-05T14:49:56.506Z,0.73
2022-08-05T14:52:36.268Z,0.70
2022-08-05T14:55:03.344Z,9.32
2022-08-05T14:57:53.965Z,5.53
2022-08-05T15:00:16.525Z,3.63
2022-08-05T15:02:47.245Z,17.67
2022-08-05T15:05:14.202Z,12.52
2022-08-05T15:08:08.804Z,11.93
2022-08-05T15:10:28.841Z,2.47
2022-08-05T15:13:03.636Z,1.75
2022-08-05T15:15:53.847Z,1.80
2022-08-05T15:18:17.441Z,2.20
2022-08-05T15:20:44.401Z,2.38
2022-08-05T15:23:13.224Z,1.60
2022-08-05T15:25:52.812Z,1.92
2022-08-05T15:28:27.426Z,2.03
2022-08-05T15:30:55.055Z,1.73
2022-08-05T15:33:56.820Z,1.58
2022-08-05T15:36:16.674Z,1.55
2022-08-05T15:38:44.714Z,1.42
2022-08-05T15:41:23.235Z,1.42
2022-08-05T15:43:52.476Z,1.10
2022-08-05T15:46:24.425Z,1.00
2022-08-05T15:48:53.032Z,1.02
2022-08-05T15:52:13.654Z,1.10
2022-08-05T15:54:15.169Z,1.05
2022-08-05T15:56:42.417Z,1.10
2022-08-05T15:59:10.302Z,1.00
2022-08-05T16:01:53.146Z,1.42
2022-08-05T16:04:25.378Z,0.85
2022-08-05T16:06:53.565Z,1.10
2022-08-05T16:09:22.607Z,0.82
2022-08-05T16:11:52.863Z,1.15
2022-08-05T16:14:20.531Z,1.00
2022-08-05T16:16:49.048Z,1.10
2022-08-05T16:19:25.906Z,1.10
2022-08-05T16:22:03.427Z,1.17
2022-08-05T16:24:40.287Z,1.10
2022-08-05T16:27:17.527Z,0.95
2022-08-05T16:29:50.038Z,1.30
2022-08-05T16:32:17.366Z,0.95
2022-08-05T16:34:50.874Z,0.93
2022-08-05T16:38:03.340Z,1.30
2022-08-05T16:40:13.337Z,1.20
2022-08-05T16:42:51.768Z,0.93
2022-08-05T16:46:07.314Z,0.85
2022-08-05T16:48:05.023Z,1.10
2022-08-05T16:50:31.480Z,1.08
2022-08-05T16:52:57.982Z,1.08
2022-08-05T16:55:28.181Z,0.80
2022-08-05T16:58:13.133Z,1.00
2022-08-05T17:00:40.745Z,0.82
2022-08-05T17:03:09.342Z,0.80
2022-08-05T17:05:42.440Z,0.85
2022-08-05T17:08:08.955Z,1.00
2022-08-05T17:10:39.904Z,1.08
2022-08-05T17:13:06.536Z,1.10
2022-08-05T17:15:48.664Z,1.30
2022-08-05T17:18:17.596Z,0.93
2022-08-05T17:20:45.713Z,1.20
2022-08-05T17:24:03.180Z,1.30
2022-08-05T17:25:58.746Z,1.00
2022-08-05T17:28:25.706Z,1.10
2022-08-05T17:30:55.475Z,1.20
2022-08-05T17:33:22.042Z,1.35
2022-08-05T17:36:08.082Z,1.35
2022-08-05T17:38:36.337Z,1.20
2022-08-05T17:41:02.937Z,1.38
2022-08-05T17:43:50.506Z,1.15
2022-08-05T17:46:16.124Z,1.48
2022-08-05T17:48:44.973Z,1.05
2022-08-05T17:51:14.554Z,1.20
2022-08-05T17:53:50.775Z,1.27
2022-08-05T17:56:21.106Z,1.80
2022-08-05T17:58:49.478Z,1.33
2022-08-05T18:01:17.682Z,1.40
2022-08-05T18:03:55.901Z,1.40
2022-08-05T18:06:29.263Z,1.25
2022-08-05T18:08:55.863Z,1.30
2022-08-05T18:11:32.450Z,1.40
2022-08-05T18:14:04.194Z,1.40
2022-08-05T18:16:32.503Z,1.25
2022-08-05T18:18:59.048Z,1.25
2022-08-05T18:21:26.453Z,1.40
2022-08-05T18:23:54.970Z,1.40
2022-08-05T18:26:29.099Z,1.13
2022-08-05T18:28:58.879Z,1.42
2022-08-05T18:31:25.495Z,1.60
2022-08-05T18:33:59.628Z,1.30
2022-08-05T18:36:28.122Z,1.33
2022-08-05T18:38:55.151Z,1.13
2022-08-05T18:41:55.880Z,1.20
2022-08-05T18:44:08.149Z,1.00
2022-08-05T18:46:35.506Z,1.45
2022-08-05T18:49:22.393Z,1.35
2022-08-05T18:52:15.921Z,1.25
2022-08-05T18:54:45.804Z,1.10
2022-08-05T18:57:15.408Z,1.10
2022-08-05T19:00:01.475Z,1.02
2022-08-05T19:02:29.639Z,1.23
2022-08-05T19:05:02.137Z,1.23
2022-08-05T19:07:47.937Z,1.23
2022-08-05T19:10:16.045Z,1.10
2022-08-05T19:12:43.705Z,1.30
2022-08-05T19:15:57.766Z,1.30
2022-08-05T19:18:10.387Z,1.20
2022-08-05T19:20:46.792Z,1.10
2022-08-05T19:24:04.208Z,1.30
2022-08-05T19:26:02.688Z,1.30
2022-08-05T19:28:33.688Z,1.35
2022-08-05T19:31:01.071Z,1.10
2022-08-05T19:33:35.503Z,1.10
2022-08-05T19:36:05.977Z,1.20
2022-08-05T19:38:37.152Z,1.10
2022-08-05T19:41:07.213Z,1.27
2022-08-05T19:44:04.082Z,1.02
2022-08-05T19:46:30.062Z,1.15
2022-08-05T19:49:05.144Z,1.10
2022-08-05T19:52:08.267Z,1.00
2022-08-05T19:54:27.029Z,1.10
2022-08-05T19:56:58.265Z,1.15
2022-08-05T20:00:00.675Z,0.98
2022-08-05T20:02:11.557Z,0.90
2022-08-05T20:04:38.077Z,0.90
2022-08-05T20:07:13.485Z,1.27
2022-08-05T20:09:55.021Z,1.15
2022-08-05T20:12:24.533Z,1.10
2022-08-05T20:14:52.734Z,1.10
2022-08-05T20:17:23.647Z,1.13
2022-08-05T20:19:50.570Z,1.20
2022-08-05T20:22:17.080Z,1.42
2022-08-05T20:24:46.885Z,1.10
2022-08-05T20:27:15.867Z,1.55
2022-08-05T20:29:42.435Z,1.60
2022-08-05T20:32:25.232Z,2.05
2022-08-05T20:34:51.833Z,1.42
2022-08-05T20:38:04.811Z,1.20
2022-08-05T20:40:05.705Z,1.38
2022-08-05T20:42:33.249Z,1.38
2022-08-05T20:44:59.716Z,1.30
2022-08-05T20:47:31.693Z,1.33
2022-08-05T20:49:59.300Z,1.20
2022-08-05T20:52:26.191Z,1.17
2022-08-05T20:55:55.377Z,1.20
2022-08-05T20:57:43.211Z,1.25
2022-08-05T21:00:40.742Z,1.02
2022-08-05T21:03:07.157Z,1.10
2022-08-05T21:05:48.326Z,1.10
2022-08-05T21:08:20.901Z,1.20
2022-08-05T21:10:53.503Z,0.95
2022-08-05T21:13:26.008Z,1.23
2022-08-05T21:15:54.571Z,1.20
2022-08-05T21:18:23.379Z,1.20
2022-08-05T21:20:49.947Z,0.93
2022-08-05T21:23:16.436Z,1.10
2022-08-05T21:25:44.767Z,1.08
2022-08-05T21:28:12.083Z,1.20
2022-08-05T21:30:39.991Z,1.10
2022-08-05T21:33:22.002Z,0.95
2022-08-05T21:35:55.827Z,1.10
2022-08-05T21:38:26.604Z,1.02
2022-08-05T21:40:53.125Z,0.90
2022-08-05T21:43:24.494Z,1.30
2022-08-05T21:45:56.372Z,1.00
2022-08-05T21:48:24.322Z,1.00
2022-08-05T21:50:53.007Z,1.00
2022-08-05T21:53:21.014Z,0.90
2022-08-05T21:56:05.354Z,0.93
2022-08-05T21:58:34.090Z,1.20
2022-08-05T22:01:04.838Z,0.93
2022-08-05T22:03:52.379Z,0.80
2022-08-05T22:06:22.382Z,0.90
2022-08-05T22:08:52.168Z,1.02
2022-08-05T22:11:35.207Z,0.85
2022-08-05T22:14:19.957Z,0.90
2022-08-05T22:16:51.230Z,0.90
2022-08-05T22:20:01.116Z,0.80
2022-08-05T22:22:06.961Z,1.02
2022-08-05T22:24:53.591Z,0.85
2022-08-05T22:28:09.354Z,0.93
2022-08-05T22:30:32.226Z,0.93
2022-08-05T22:33:01.457Z,1.00
2022-08-05T22:35:31.262Z,1.00
2022-08-05T22:38:14.807Z,0.82
2022-08-05T22:40:41.736Z,0.82
2022-08-05T22:43:15.954Z,0.90
2022-08-05T22:46:08.830Z,0.90
2022-08-05T22:48:39.612Z,0.90
2022-08-05T22:51:07.613Z,0.80
2022-08-05T22:53:35.983Z,0.90
2022-08-05T22:56:03.309Z,0.82
2022-08-05T22:58:36.475Z,1.00
2022-08-05T23:01:02.985Z,1.13
2022-08-05T23:03:58.504Z,0.80
2022-08-05T23:06:18.971Z,0.80
2022-08-05T23:08:45.665Z,0.77
2022-08-05T23:11:18.828Z,0.75
2022-08-05T23:13:45.979Z,0.90
2022-08-05T23:16:25.998Z,0.85
2022-08-05T23:18:59.860Z,0.90
2022-08-05T23:21:26.401Z,0.90
2022-08-05T23:24:11.194Z,1.17
2022-08-05T23:26:38.297Z,1.00
2022-08-05T23:29:05.298Z,0.70
2022-08-05T23:31:31.837Z,0.90
2022-08-05T23:34:04.396Z,0.93
2022-08-05T23:36:39.981Z,1.00
2022-08-05T23:39:17.138Z,0.85
2022-08-05T23:41:50.260Z,1.00
2022-08-05T23:44:16.931Z,0.65
2022-08-05T23:46:46.348Z,0.90
2022-08-05T23:49:15.871Z,0.80
2022-08-05T23:52:02.677Z,0.85
2022-08-05T23:54:36.578Z,1.00
2022-08-05T23:57:06.175Z,0.90
2022-08-05T23:59:37.604Z,0.90
